createdAt,value
2023-03-19T00:02:18.914Z,99605.34
2023-03-19T00:04:49.684Z,99608.84
2023-03-19T00:07:21.917Z,99601.88
2023-03-19T00:09:52.403Z,99595.16
2023-03-19T00:12:22.998Z,99579.75
2023-03-19T00:14:53.444Z,99575.50
2023-03-19T00:17:23.892Z,99572.94
2023-03-19T00:19:54.338Z,99578.97
2023-03-19T00:22:26.551Z,99565.16
2023-03-19T00:24:57.236Z,99569.50
2023-03-19T00:27:27.948Z,99566.94
2023-03-19T00:30:02.572Z,99510.94
2023-03-19T00:32:34.318Z,99556.56
2023-03-19T00:35:04.770Z,99536.69
2023-03-19T00:37:37.231Z,99546.09
2023-03-19T00:40:08.728Z,99494.34
2023-03-19T00:42:39.095Z,99542.50
2023-03-19T00:45:10.701Z,99526.97
2023-03-19T00:47:44.680Z,99528.78
2023-03-19T00:50:15.218Z,99519.41
2023-03-19T00:52:47.258Z,99498.78
2023-03-19T00:55:17.883Z,99478.09
2023-03-19T00:57:51.620Z,99510.75
2023-03-19T01:00:23.237Z,99498.53
2023-03-19T01:02:54.545Z,99484.88
2023-03-19T01:05:24.991Z,99493.34
2023-03-19T01:07:57.008Z,99492.44
2023-03-19T01:10:27.885Z,99489.47
2023-03-19T01:12:58.207Z,99477.94
2023-03-19T01:15:28.638Z,99487.72
2023-03-19T01:17:59.040Z,99484.47
2023-03-19T01:20:29.440Z,99489.84
2023-03-19T01:23:02.326Z,99467.44
2023-03-19T01:25:32.635Z,99483.47
2023-03-19T01:28:03.041Z,99450.50
2023-03-19T01:30:33.581Z,99473.69
2023-03-19T01:33:04.150Z,99460.84
2023-03-19T01:35:35.057Z,99451.53
2023-03-19T01:38:07.119Z,99455.09
2023-03-19T01:40:37.527Z,99448.19
2023-03-19T01:43:20.904Z,99436.34
2023-03-19T01:45:54.385Z,99445.00
2023-03-19T01:48:31.800Z,99431.34
2023-03-19T01:51:03.799Z,99434.75
2023-03-19T01:53:39.199Z,99423.50
2023-03-19T01:56:14.073Z,99420.91
2023-03-19T01:58:46.714Z,99407.25
2023-03-19T02:01:17.388Z,99354.03
2023-03-19T02:03:49.020Z,99417.63
2023-03-19T02:06:20.534Z,99408.78
2023-03-19T02:08:54.106Z,99399.97
2023-03-19T02:11:25.277Z,99391.72
2023-03-19T02:13:55.809Z,99374.34
2023-03-19T02:16:26.304Z,99380.53
2023-03-19T02:18:57.551Z,99373.69
2023-03-19T02:21:28.358Z,99377.19
2023-03-19T02:24:09.237Z,99379.59
2023-03-19T02:26:42.340Z,99378.56
2023-03-19T02:29:12.817Z,99376.44
2023-03-19T02:31:43.405Z,99334.34
2023-03-19T02:34:35.989Z,99337.84
2023-03-19T02:37:10.857Z,99353.47
2023-03-19T02:39:50.174Z,99325.16
2023-03-19T02:42:24.272Z,99351.97
2023-03-19T02:44:54.668Z,99352.00
2023-03-19T02:47:26.096Z,99352.03
2023-03-19T02:49:56.849Z,99346.50
2023-03-19T02:52:27.383Z,99357.41
2023-03-19T02:54:57.954Z,99343.38
2023-03-19T02:57:30.123Z,99273.00
2023-03-19T03:00:00.551Z,99336.31
2023-03-19T03:02:31.096Z,99338.88
2023-03-19T03:05:01.646Z,99334.38
2023-03-19T03:07:32.566Z,99337.91
2023-03-19T03:10:02.983Z,99307.75
2023-03-19T03:12:35.128Z,99329.91
2023-03-19T03:15:05.679Z,99307.56
2023-03-19T03:17:36.849Z,99305.00
2023-03-19T03:20:08.312Z,99300.66
2023-03-19T03:22:38.902Z,99307.75
2023-03-19T03:25:11.261Z,99295.63
2023-03-19T03:27:43.302Z,99287.00
2023-03-19T03:30:14.808Z,99268.00
2023-03-19T03:32:45.832Z,99276.28
2023-03-19T03:35:22.692Z,99262.25
2023-03-19T03:37:53.927Z,99253.63
2023-03-19T03:40:24.426Z,99257.25
2023-03-19T03:42:56.419Z,99246.97
2023-03-19T03:45:26.951Z,99245.22
2023-03-19T03:47:57.745Z,99247.66
2023-03-19T03:50:28.261Z,99246.94
2023-03-19T03:52:58.718Z,99255.72
2023-03-19T03:55:29.318Z,99252.56
2023-03-19T03:58:01.856Z,99248.53
2023-03-19T04:00:32.732Z,99228.84
2023-03-19T04:03:09.567Z,99232.31
2023-03-19T04:05:45.047Z,99222.38
2023-03-19T04:08:26.698Z,99207.06
2023-03-19T04:10:57.337Z,99179.69
2023-03-19T04:13:30.240Z,99222.50
2023-03-19T04:16:00.626Z,99233.56
2023-03-19T04:18:33.067Z,99227.44
2023-03-19T04:21:04.813Z,99230.88
2023-03-19T04:23:35.835Z,99213.78
2023-03-19T04:26:08.004Z,99181.25
2023-03-19T04:28:40.125Z,99212.16
2023-03-19T04:31:12.215Z,99133.88
2023-03-19T04:33:42.660Z,99204.91
2023-03-19T04:36:13.451Z,99191.06
2023-03-19T04:38:44.132Z,99155.09
2023-03-19T04:41:14.908Z,99186.81
2023-03-19T04:43:47.382Z,99167.09
2023-03-19T04:46:17.890Z,99182.50
2023-03-19T04:48:48.281Z,99184.19
2023-03-19T04:51:18.689Z,99185.78
2023-03-19T04:53:49.835Z,99181.41
2023-03-19T04:56:21.180Z,99177.13
2023-03-19T04:58:53.380Z,99169.44
2023-03-19T05:01:24.054Z,99156.53
2023-03-19T05:03:55.046Z,99158.34
2023-03-19T05:06:27.446Z,99162.66
2023-03-19T05:08:57.919Z,99154.91
2023-03-19T05:11:28.709Z,99161.88
2023-03-19T05:14:00.783Z,99158.56
2023-03-19T05:16:31.612Z,99158.63
2023-03-19T05:19:02.085Z,99144.19
2023-03-19T05:21:32.506Z,99160.56
2023-03-19T05:24:02.984Z,99162.34
2023-03-19T05:26:33.560Z,99161.63
2023-03-19T05:29:05.947Z,99159.16
2023-03-19T05:31:36.656Z,99166.97
2023-03-19T05:34:07.123Z,99169.69
2023-03-19T05:36:37.785Z,99125.22
2023-03-19T05:39:08.971Z,99175.03
2023-03-19T05:41:39.493Z,99152.69
2023-03-19T05:44:11.622Z,99161.34
2023-03-19T05:46:42.538Z,99167.41
2023-03-19T05:49:13.456Z,99128.78
2023-03-19T05:51:43.889Z,99156.25
2023-03-19T05:54:14.647Z,99156.25
2023-03-19T05:56:45.446Z,99165.72
2023-03-19T05:59:17.544Z,99157.09
2023-03-19T06:01:50.223Z,99142.47
2023-03-19T06:04:20.804Z,99149.34
2023-03-19T06:06:51.223Z,99142.41
2023-03-19T06:09:21.912Z,99139.75
2023-03-19T06:11:52.393Z,99088.19
2023-03-19T06:14:24.514Z,99129.28
2023-03-19T06:16:54.929Z,99135.25
2023-03-19T06:19:25.590Z,99127.50
2023-03-19T06:21:56.012Z,99136.94
2023-03-19T06:24:27.126Z,99135.22
2023-03-19T06:26:57.669Z,99125.72
2023-03-19T06:29:29.935Z,99131.72
2023-03-19T06:32:00.483Z,99118.00
2023-03-19T06:34:31.050Z,99128.31
2023-03-19T06:37:01.508Z,99124.06
2023-03-19T06:39:32.403Z,99124.91
2023-03-19T06:42:03.807Z,99130.97
2023-03-19T06:44:35.947Z,99130.97
2023-03-19T06:47:06.630Z,99124.97
2023-03-19T06:49:37.066Z,99125.88
2023-03-19T06:52:07.875Z,99131.09
2023-03-19T06:54:38.558Z,99128.41
2023-03-19T06:57:09.225Z,99133.56
2023-03-19T06:59:41.317Z,99131.72
2023-03-19T07:02:14.255Z,99121.28
2023-03-19T07:04:44.645Z,99131.63
2023-03-19T07:07:15.154Z,99126.47
2023-03-19T07:09:46.205Z,99132.38
2023-03-19T07:12:16.967Z,99126.34
2023-03-19T07:14:53.354Z,99122.94
2023-03-19T07:17:23.811Z,99109.06
2023-03-19T07:19:54.420Z,99117.88
2023-03-19T07:22:27.515Z,99122.28
2023-03-19T07:24:57.987Z,99131.69
2023-03-19T07:27:28.464Z,99123.97
2023-03-19T07:30:00.454Z,99112.00
2023-03-19T07:32:31.093Z,99121.50
2023-03-19T07:35:01.593Z,99126.78
2023-03-19T07:37:33.524Z,99107.91
2023-03-19T07:40:04.488Z,99090.81
2023-03-19T07:42:34.925Z,99108.88
2023-03-19T07:45:07.307Z,99105.44
2023-03-19T07:47:37.820Z,99116.72
2023-03-19T07:50:09.236Z,99117.59
2023-03-19T07:52:39.861Z,99123.66
2023-03-19T07:55:10.963Z,99127.13
2023-03-19T07:57:42.012Z,99119.41
2023-03-19T08:00:28.876Z,99122.88
2023-03-19T08:03:02.569Z,99120.34
2023-03-19T08:05:46.346Z,99122.16
2023-03-19T08:08:16.749Z,99126.47
2023-03-19T08:10:52.255Z,99107.63
2023-03-19T08:13:23.652Z,99121.34
2023-03-19T08:15:58.649Z,99146.31
2023-03-19T08:18:36.109Z,99125.69
2023-03-19T08:21:09.731Z,99123.13
2023-03-19T08:23:51.036Z,99128.31
2023-03-19T08:26:31.030Z,99134.28
2023-03-19T08:29:17.298Z,99129.16
2023-03-19T08:31:52.089Z,99135.16
2023-03-19T08:34:22.833Z,99134.28
2023-03-19T08:37:14.503Z,99142.91
2023-03-19T08:39:45.101Z,99150.63
2023-03-19T08:42:17.606Z,99157.47
2023-03-19T08:44:50.735Z,99165.19
2023-03-19T08:47:25.198Z,99160.88
2023-03-19T08:49:56.643Z,99169.47
2023-03-19T08:52:27.265Z,99178.91
2023-03-19T08:54:59.506Z,99166.88
2023-03-19T08:57:33.418Z,99179.75
2023-03-19T09:00:09.373Z,99175.47
2023-03-19T09:02:41.565Z,99173.72
2023-03-19T09:05:15.784Z,99170.28
2023-03-19T09:07:50.335Z,99159.13
2023-03-19T09:10:21.102Z,99164.28
2023-03-19T09:12:51.726Z,99165.16
2023-03-19T09:15:26.726Z,99166.88
2023-03-19T09:18:01.577Z,99163.44
2023-03-19T09:20:34.991Z,99156.56
2023-03-19T09:23:08.400Z,99159.97
2023-03-19T09:25:39.043Z,99158.25
2023-03-19T09:28:10.082Z,99151.38
2023-03-19T09:30:42.945Z,99163.38
2023-03-19T09:33:15.379Z,99153.06
2023-03-19T09:35:46.383Z,99168.50
2023-03-19T09:38:17.187Z,99169.34
2023-03-19T09:40:54.824Z,99163.34
2023-03-19T09:43:42.890Z,99161.59
2023-03-19T09:46:22.917Z,99180.53
2023-03-19T09:49:00.638Z,99171.94
2023-03-19T09:51:38.291Z,99174.56
2023-03-19T09:54:16.739Z,99172.84
2023-03-19T09:56:51.025Z,99173.69
2023-03-19T09:59:22.604Z,99166.81
2023-03-19T10:02:00.694Z,99163.38
2023-03-19T10:04:45.556Z,99158.22
2023-03-19T10:07:27.997Z,99166.81
2023-03-19T10:10:30.896Z,99158.25
2023-03-19T10:13:11.566Z,99144.50
2023-03-19T10:15:44.604Z,99168.53
2023-03-19T10:18:19.202Z,99166.84
2023-03-19T10:20:59.080Z,99158.25
2023-03-19T10:23:44.087Z,99170.28
2023-03-19T10:26:20.097Z,99170.22
2023-03-19T10:29:00.706Z,99175.38
2023-03-19T10:31:32.383Z,99075.69
2023-03-19T10:34:17.174Z,99165.97
2023-03-19T10:36:51.278Z,99151.34
2023-03-19T10:39:23.041Z,99147.91
2023-03-19T10:42:05.800Z,99144.50
2023-03-19T10:44:41.589Z,99127.31
2023-03-19T10:47:18.040Z,99153.06
2023-03-19T10:49:48.726Z,99166.78
2023-03-19T10:52:27.971Z,99153.09
2023-03-19T10:55:05.070Z,99179.69
2023-03-19T10:57:37.475Z,99175.41
2023-03-19T11:00:19.726Z,99171.97
2023-03-19T11:02:53.499Z,99184.81
2023-03-19T11:05:32.627Z,99113.47
2023-03-19T11:08:08.280Z,99125.50
2023-03-19T11:10:39.441Z,99195.09
2023-03-19T11:13:26.325Z,99188.25
2023-03-19T11:16:01.854Z,99184.78
2023-03-19T11:18:34.990Z,99184.81
2023-03-19T11:21:10.931Z,99166.75
2023-03-19T11:23:45.182Z,99177.09
2023-03-19T11:26:22.813Z,99186.56
2023-03-19T11:28:55.610Z,99143.59
2023-03-19T11:31:34.870Z,99183.16
2023-03-19T11:34:18.094Z,99128.16
2023-03-19T11:36:58.954Z,99186.56
2023-03-19T11:39:43.776Z,99178.84
2023-03-19T11:43:01.348Z,99179.69
2023-03-19T11:45:41.662Z,99145.31
2023-03-19T11:48:34.915Z,99180.56
2023-03-19T11:51:13.052Z,99179.75
2023-03-19T11:53:57.249Z,99173.72
2023-03-19T11:56:40.678Z,99177.16
2023-03-19T11:59:51.132Z,99183.16
2023-03-19T12:02:56.714Z,99183.19
2023-03-19T12:05:34.692Z,99170.34
2023-03-19T12:08:28.334Z,99178.91
2023-03-19T12:11:19.552Z,99155.69
2023-03-19T12:14:11.914Z,99177.19
2023-03-19T12:17:07.878Z,99182.31
2023-03-19T12:19:56.722Z,99168.59
2023-03-19T12:22:41.893Z,99164.31
2023-03-19T12:25:41.303Z,99156.56
2023-03-19T12:28:20.950Z,99156.56
2023-03-19T12:31:03.682Z,99157.41
2023-03-19T12:34:19.888Z,99148.00
2023-03-19T12:36:57.556Z,99146.28
2023-03-19T12:39:33.591Z,99146.31
2023-03-19T12:42:09.579Z,99137.72
2023-03-19T12:44:42.494Z,99136.84
2023-03-19T12:47:23.467Z,99142.84
2023-03-19T12:49:59.941Z,99130.81
2023-03-19T12:52:36.583Z,99143.69
2023-03-19T12:55:17.249Z,99135.97
2023-03-19T12:57:51.543Z,99139.38
2023-03-19T13:00:40.237Z,99141.09
2023-03-19T13:03:19.613Z,99131.63
2023-03-19T13:05:58.259Z,99129.06
2023-03-19T13:08:37.293Z,99071.50
2023-03-19T13:11:15.696Z,99141.09
2023-03-19T13:13:54.195Z,99122.16
2023-03-19T13:16:37.631Z,99146.25
2023-03-19T13:19:20.010Z,99114.44
2023-03-19T13:21:54.431Z,99149.69
2023-03-19T13:27:40.824Z,99141.09
2023-03-19T13:30:23.389Z,99145.38
2023-03-19T13:32:56.983Z,99142.78
2023-03-19T13:35:41.914Z,99144.53
2023-03-19T13:38:23.726Z,99134.19
2023-03-19T13:40:56.884Z,99122.16
2023-03-19T13:43:43.826Z,99142.78
2023-03-19T13:46:38.492Z,99135.91
2023-03-19T13:49:34.415Z,99087.78
2023-03-19T13:52:50.728Z,99136.78
2023-03-19T13:55:34.682Z,99129.06
2023-03-19T13:58:34.788Z,99101.53
2023-03-19T14:01:05.336Z,99134.19
2023-03-19T14:03:41.152Z,99139.34
2023-03-19T14:06:34.396Z,99140.25
2023-03-19T14:09:09.516Z,99139.34
2023-03-19T14:11:41.142Z,99151.38
2023-03-19T14:14:18.420Z,99143.69
2023-03-19T14:16:49.516Z,99145.38
2023-03-19T14:19:21.595Z,99113.56
2023-03-19T14:22:15.163Z,99113.56
2023-03-19T14:24:58.678Z,99144.53
2023-03-19T14:27:33.782Z,99155.69
2023-03-19T14:30:11.735Z,99153.13
2023-03-19T14:32:48.917Z,99158.28
2023-03-19T14:35:22.274Z,99147.97
2023-03-19T14:37:57.226Z,99159.16
2023-03-19T14:40:34.519Z,99156.59
2023-03-19T14:43:13.026Z,99170.34
2023-03-19T14:45:51.005Z,99139.41
2023-03-19T14:49:13.578Z,99172.91
2023-03-19T14:51:56.780Z,99164.34
2023-03-19T14:54:34.015Z,99161.78
2023-03-19T14:57:11.258Z,99154.88
2023-03-19T14:59:45.340Z,99142.88
2023-03-19T15:02:36.520Z,99137.72
2023-03-19T15:05:26.758Z,99149.75
2023-03-19T15:08:03.892Z,99154.91
2023-03-19T15:10:47.775Z,99153.19
2023-03-19T15:13:38.146Z,99118.84
2023-03-19T15:16:28.097Z,99148.06
2023-03-19T15:18:58.361Z,99161.78
2023-03-19T15:21:31.253Z,99148.91
2023-03-19T15:24:10.312Z,99151.44
2023-03-19T15:26:46.938Z,99165.16
2023-03-19T15:29:19.198Z,99161.72
2023-03-19T15:32:04.946Z,99144.50
2023-03-19T15:34:46.255Z,99170.31
2023-03-19T15:37:18.332Z,99151.38
2023-03-19T15:39:53.870Z,99153.09
2023-03-19T15:42:41.016Z,99181.44
2023-03-19T15:45:16.982Z,99187.41
2023-03-19T15:47:51.765Z,99183.97
2023-03-19T15:50:25.338Z,99130.66
2023-03-19T15:53:01.690Z,99197.72
2023-03-19T15:55:32.911Z,99166.75
2023-03-19T15:58:09.481Z,99211.47
2023-03-19T16:03:41.640Z,99217.47
2023-03-19T16:06:20.472Z,99218.34
2023-03-19T16:08:56.471Z,99125.53
2023-03-19T16:11:32.510Z,99216.66
2023-03-19T16:14:04.297Z,99208.03
2023-03-19T16:16:39.967Z,99216.59
2023-03-19T16:19:34.521Z,99210.63
2023-03-19T16:22:07.298Z,99175.34
2023-03-19T16:24:40.330Z,99208.84
2023-03-19T16:27:16.424Z,99245.66
2023-03-19T16:29:52.065Z,99216.38
2023-03-19T16:32:26.103Z,99223.19
2023-03-19T16:34:57.886Z,99221.50
2023-03-19T16:37:41.047Z,99224.97
2023-03-19T16:40:43.245Z,99226.72
2023-03-19T16:43:27.258Z,99224.97
2023-03-19T16:46:09.732Z,99226.72
2023-03-19T16:49:03.621Z,99224.97
2023-03-19T16:51:35.348Z,99228.41
2023-03-19T16:54:10.182Z,99230.13
2023-03-19T16:56:42.999Z,99237.72
2023-03-19T16:59:23.526Z,99240.19
2023-03-19T17:01:56.823Z,99239.38
2023-03-19T17:04:29.761Z,99236.91
2023-03-19T17:07:00.321Z,99225.91
2023-03-19T17:09:37.435Z,99232.00
2023-03-19T17:12:10.835Z,99228.56
2023-03-19T17:14:41.371Z,99233.75
2023-03-19T17:17:24.443Z,99259.47
2023-03-19T17:19:59.192Z,99256.88
2023-03-19T17:22:30.463Z,99240.53
2023-03-19T17:25:01.128Z,99238.84
2023-03-19T17:27:34.779Z,99117.56
2023-03-19T17:30:05.412Z,99238.78
2023-03-19T17:32:38.161Z,99242.16
2023-03-19T17:35:25.244Z,99228.41
2023-03-19T17:37:55.916Z,99240.44
2023-03-19T17:40:37.189Z,99230.13
2023-03-19T17:43:17.460Z,99248.16
2023-03-19T17:45:51.733Z,99246.34
2023-03-19T17:48:26.462Z,99250.56
2023-03-19T17:51:05.937Z,99257.31
2023-03-19T17:53:37.369Z,99248.63
2023-03-19T17:56:11.850Z,99253.66
2023-03-19T17:58:42.397Z,99251.00
2023-03-19T18:01:18.290Z,99248.25
2023-03-19T18:03:54.809Z,99246.47
2023-03-19T18:06:28.065Z,99246.38
2023-03-19T18:08:58.850Z,99251.44
2023-03-19T18:11:29.343Z,99256.50
2023-03-19T18:13:59.971Z,99258.22
2023-03-19T18:16:33.221Z,99263.16
2023-03-19T18:19:05.416Z,99249.19
2023-03-19T18:21:40.851Z,99269.66
2023-03-19T18:24:14.507Z,99271.22
2023-03-19T18:26:45.432Z,99264.38
2023-03-19T18:29:18.806Z,99264.41
2023-03-19T18:31:53.901Z,99269.53
2023-03-19T18:34:27.359Z,99272.91
2023-03-19T18:37:01.546Z,99277.25
2023-03-19T18:39:33.677Z,99287.50
2023-03-19T18:42:04.030Z,99284.97
2023-03-19T18:44:34.800Z,99290.00
2023-03-19T18:47:05.574Z,99289.91
2023-03-19T18:49:39.034Z,99286.31
2023-03-19T18:52:22.471Z,99298.31
2023-03-19T18:54:53.029Z,99299.28
2023-03-19T18:57:23.617Z,99293.28
2023-03-19T18:59:54.210Z,99301.94
2023-03-19T19:02:34.123Z,99307.06
2023-03-19T19:05:08.082Z,99260.41
2023-03-19T19:07:40.227Z,99305.13
2023-03-19T19:10:13.384Z,99306.75
2023-03-19T19:12:47.062Z,99295.50
2023-03-19T19:15:25.604Z,99311.78
2023-03-19T19:17:59.665Z,99307.47
2023-03-19T19:20:35.058Z,99315.09
2023-03-19T19:23:07.293Z,99308.19
2023-03-19T19:25:39.114Z,99301.34
2023-03-19T19:28:21.773Z,99309.81
2023-03-19T19:30:52.768Z,99306.38
2023-03-19T19:33:28.232Z,99306.22
2023-03-19T19:35:59.093Z,99313.84
2023-03-19T19:38:31.287Z,99323.38
2023-03-19T19:41:02.239Z,99319.88
2023-03-19T19:43:33.757Z,99326.75
2023-03-19T19:46:04.169Z,99325.16
2023-03-19T19:48:40.026Z,99327.13
2023-03-19T19:51:10.857Z,99336.50
2023-03-19T19:53:45.465Z,99335.56
2023-03-19T19:56:18.960Z,99334.56
2023-03-19T19:58:50.571Z,99355.81
2023-03-19T20:01:22.681Z,99345.44
2023-03-19T20:03:54.099Z,99345.28
2023-03-19T20:06:24.647Z,99354.66
2023-03-19T20:08:56.810Z,99359.66
2023-03-19T20:11:29.285Z,99276.81
2023-03-19T20:13:59.885Z,99369.06
2023-03-19T20:16:30.592Z,99374.31
2023-03-19T20:19:01.324Z,99369.19
2023-03-19T20:21:31.886Z,99359.78
2023-03-19T20:24:04.017Z,99372.69
2023-03-19T20:26:35.818Z,99379.66
2023-03-19T20:29:08.658Z,99383.16
2023-03-19T20:31:39.228Z,99379.97
2023-03-19T20:34:12.385Z,99371.78
2023-03-19T20:36:42.893Z,99367.72
2023-03-19T20:39:15.013Z,99372.16
2023-03-19T20:41:46.385Z,99385.03
2023-03-19T20:44:24.719Z,99384.09
2023-03-19T20:46:55.369Z,99340.00
2023-03-19T20:49:25.849Z,99395.09
2023-03-19T20:51:56.813Z,99405.34
2023-03-19T20:54:28.938Z,99396.72
2023-03-19T20:57:00.052Z,99395.94
2023-03-19T20:59:30.668Z,99394.03
2023-03-19T21:02:01.137Z,99406.34
2023-03-19T21:04:31.573Z,99409.94
2023-03-19T21:07:02.810Z,99419.66
2023-03-19T21:09:34.727Z,99424.09
2023-03-19T21:12:05.202Z,99423.38
2023-03-19T21:14:35.689Z,99419.28
2023-03-19T21:17:06.312Z,99426.47
2023-03-19T21:19:38.056Z,99432.03
2023-03-19T21:22:09.009Z,99440.84
2023-03-19T21:24:41.129Z,99450.44
2023-03-19T21:27:20.827Z,99379.25
2023-03-19T21:29:52.536Z,99442.22
2023-03-19T21:32:23.228Z,99446.59
2023-03-19T21:34:54.926Z,99450.06
2023-03-19T21:37:25.428Z,99450.13
2023-03-19T21:39:57.524Z,99448.44
2023-03-19T21:42:36.091Z,99454.47
2023-03-19T21:45:07.457Z,99449.44
2023-03-19T21:47:37.938Z,99459.88
2023-03-19T21:50:09.433Z,99471.25
2023-03-19T21:52:56.311Z,99471.28
2023-03-19T21:55:30.522Z,99464.47
2023-03-19T21:58:01.142Z,99464.44
2023-03-19T22:00:33.603Z,99443.81
2023-03-19T22:03:04.179Z,99489.44
2023-03-19T22:05:35.093Z,99484.28
2023-03-19T22:08:05.731Z,99488.53
2023-03-19T22:10:38.206Z,99491.94
2023-03-19T22:13:08.869Z,99509.13
2023-03-19T22:15:40.572Z,99493.59
2023-03-19T22:18:16.653Z,99519.38
2023-03-19T22:20:47.572Z,99525.38
2023-03-19T22:23:18.087Z,99529.69
2023-03-19T22:25:52.809Z,99538.31
2023-03-19T22:28:33.224Z,99497.03
2023-03-19T22:31:05.969Z,99540.03
2023-03-19T22:33:45.158Z,99543.38
2023-03-19T22:36:16.141Z,99546.72
2023-03-19T22:38:47.800Z,99533.75
2023-03-19T22:41:24.900Z,99539.69
2023-03-19T22:43:56.096Z,99531.06
2023-03-19T22:46:27.537Z,99536.22
2023-03-19T22:48:58.634Z,99536.13
2023-03-19T22:51:30.341Z,99548.16
2023-03-19T22:54:00.820Z,99545.47
2023-03-19T22:56:34.294Z,99559.09
2023-03-19T22:59:04.800Z,99573.66
2023-03-19T23:01:44.926Z,99577.06
2023-03-19T23:04:21.869Z,99583.13
2023-03-19T23:06:53.181Z,99582.16
2023-03-19T23:09:25.818Z,99583.66
2023-03-19T23:11:58.717Z,99591.34
2023-03-19T23:14:31.306Z,99582.66
2023-03-19T23:17:04.111Z,99598.16
2023-03-19T23:19:36.357Z,99601.59
2023-03-19T23:22:08.817Z,99573.38
2023-03-19T23:24:39.556Z,99612.22
2023-03-19T23:27:24.652Z,99611.38
2023-03-19T23:29:55.837Z,99596.03
2023-03-19T23:32:27.481Z,99608.00
2023-03-19T23:35:01.402Z,99614.72
2023-03-19T23:37:32.446Z,99599.09
2023-03-19T23:40:03.178Z,99631.41
2023-03-19T23:42:35.585Z,99633.50
2023-03-19T23:45:07.472Z,99632.31
2023-03-19T23:47:38.798Z,99608.19
2023-03-19T23:50:14.447Z,99598.59
2023-03-19T23:52:45.029Z,99626.81
2023-03-19T23:55:15.917Z,99638.06
2023-03-19T23:57:49.075Z,99633.78
